createdAt,value
2018-11-01T00:00:24.339Z,73.41
2018-11-01T00:04:31.349Z,72.86
2018-11-01T00:08:38.041Z,72.58
2018-11-01T00:12:45.228Z,72.40
2018-11-01T00:16:51.946Z,72.81
2018-11-01T00:20:58.593Z,72.73
2018-11-01T00:25:05.565Z,72.62
2018-11-01T00:29:12.107Z,72.26
2018-11-01T00:33:18.925Z,72.22
2018-11-01T00:37:25.617Z,72.54
2018-11-01T00:41:32.261Z,72.59
2018-11-01T00:45:38.992Z,72.63
2018-11-01T00:49:46.101Z,71.92
2018-11-01T00:53:52.835Z,71.56
2018-11-01T00:57:59.489Z,72.26
2018-11-01T01:02:06.829Z,72.09
2018-11-01T01:06:13.514Z,72.16
2018-11-01T01:10:20.179Z,71.89
2018-11-01T01:14:27.021Z,71.97
2018-11-01T01:18:33.814Z,72.06
2018-11-01T01:22:41.050Z,72.01
2018-11-01T01:26:49.034Z,71.98
2018-11-01T01:30:55.691Z,72.19
2018-11-01T01:35:02.599Z,72.33
2018-11-01T01:39:11.125Z,72.10
2018-11-01T01:43:17.825Z,72.11
2018-11-01T01:47:24.522Z,72.20
2018-11-01T01:51:31.239Z,71.89
2018-11-01T01:55:38.019Z,71.84
2018-11-01T01:59:44.712Z,71.75
2018-11-01T02:03:51.493Z,72.07
2018-11-01T02:07:58.102Z,71.94
2018-11-01T02:12:04.816Z,72.09
2018-11-01T02:16:11.738Z,72.35
2018-11-01T02:20:19.575Z,72.64
2018-11-01T02:24:26.270Z,72.40
2018-11-01T02:28:32.952Z,72.59
2018-11-01T02:32:39.950Z,72.49
2018-11-01T02:36:46.627Z,72.51
2018-11-01T02:40:53.340Z,72.72
2018-11-01T02:45:00.039Z,72.66
2018-11-01T02:49:07.403Z,72.91
2018-11-01T02:53:14.058Z,73.25
2018-11-01T02:57:20.968Z,73.65
2018-11-01T03:01:27.672Z,73.75
2018-11-01T03:05:34.321Z,73.77
2018-11-01T03:09:40.982Z,73.92
2018-11-01T03:13:47.761Z,74.25
2018-11-01T03:17:54.501Z,74.20
2018-11-01T03:22:01.251Z,74.07
2018-11-01T03:26:07.941Z,74.50
2018-11-01T03:30:14.775Z,74.50
2018-11-01T03:34:21.390Z,74.49
2018-11-01T03:38:28.406Z,74.83
2018-11-01T03:42:35.014Z,74.81
2018-11-01T03:46:42.555Z,74.98
2018-11-01T03:50:49.248Z,74.61
2018-11-01T03:54:56.015Z,74.86
2018-11-01T03:59:02.713Z,75.23
2018-11-01T04:03:09.487Z,75.22
2018-11-01T04:07:16.295Z,75.52
2018-11-01T04:11:22.989Z,75.62
2018-11-01T04:15:29.806Z,75.87
2018-11-01T04:19:36.497Z,76.36
2018-11-01T04:23:43.215Z,76.32
2018-11-01T04:27:49.900Z,76.35
2018-11-01T04:31:56.611Z,76.19
2018-11-01T04:36:03.478Z,76.46
2018-11-01T04:40:10.766Z,76.63
2018-11-01T04:44:17.451Z,76.97
2018-11-01T04:48:24.185Z,77.26
2018-11-01T04:52:30.917Z,77.43
2018-11-01T04:56:37.633Z,77.60
2018-11-01T05:00:44.348Z,77.20
2018-11-01T05:04:51.050Z,77.69
2018-11-01T05:08:57.719Z,77.61
2018-11-01T05:13:05.541Z,77.73
2018-11-01T05:17:12.320Z,78.27
2018-11-01T05:21:18.920Z,78.00
2018-11-01T05:25:25.646Z,78.17
2018-11-01T05:29:32.339Z,78.18
2018-11-01T05:33:38.952Z,77.81
2018-11-01T05:37:45.679Z,78.04
2018-11-01T05:41:52.419Z,78.15
2018-11-01T05:45:59.630Z,77.96
2018-11-01T05:50:06.547Z,77.79
2018-11-01T05:54:14.015Z,77.68
2018-11-01T05:58:20.880Z,78.44
2018-11-01T06:02:34.555Z,77.78
2018-11-01T06:06:41.795Z,77.64
2018-11-01T06:10:48.551Z,78.05
2018-11-01T06:14:55.172Z,77.90
2018-11-01T06:19:01.856Z,77.73
2018-11-01T06:23:08.850Z,79.60
2018-11-01T06:27:15.487Z,77.77
2018-11-01T06:31:22.190Z,77.07
2018-11-01T06:35:33.947Z,76.73
2018-11-01T06:39:40.673Z,76.42
2018-11-01T06:43:47.410Z,76.36
2018-11-01T06:47:56.722Z,76.98
2018-11-01T06:52:03.508Z,76.29
2018-11-01T06:56:10.235Z,76.47
2018-11-01T07:00:17.315Z,76.50
2018-11-01T07:04:24.327Z,76.55
2018-11-01T07:08:33.049Z,76.45
2018-11-01T07:12:42.945Z,76.32
2018-11-01T07:16:50.345Z,76.29
2018-11-01T07:20:58.377Z,76.41
2018-11-01T07:25:05.395Z,76.11
2018-11-01T07:29:12.147Z,77.01
2018-11-01T07:33:18.983Z,76.14
2018-11-01T07:37:33.225Z,75.91
2018-11-01T07:41:43.300Z,75.84
2018-11-01T07:45:50.810Z,75.62
2018-11-01T07:49:57.772Z,75.57
2018-11-01T07:54:04.618Z,75.93
2018-11-01T07:58:11.347Z,75.82
2018-11-01T08:02:18.317Z,76.21
2018-11-01T08:06:25.072Z,75.90
2018-11-01T08:10:31.881Z,75.54
2018-11-01T08:14:38.891Z,75.42
2018-11-01T08:18:45.539Z,75.52
2018-11-01T08:22:52.233Z,75.23
2018-11-01T08:26:58.915Z,74.94
2018-11-01T08:31:05.702Z,74.68
2018-11-01T08:35:12.790Z,74.43
2018-11-01T08:39:19.645Z,74.32
2018-11-01T08:43:26.423Z,74.34
2018-11-01T08:47:33.075Z,74.65
2018-11-01T08:51:39.746Z,74.78
2018-11-01T08:55:46.428Z,75.37
2018-11-01T08:59:53.161Z,75.25
2018-11-01T09:03:59.908Z,75.17
2018-11-01T09:08:06.879Z,75.58
2018-11-01T09:12:13.661Z,75.55
2018-11-01T09:16:20.389Z,74.75
2018-11-01T09:20:27.083Z,75.10
2018-11-01T09:24:33.790Z,74.03
2018-11-01T09:28:40.618Z,74.15
2018-11-01T09:32:47.446Z,74.13
2018-11-01T09:36:54.061Z,73.19
2018-11-01T09:41:00.749Z,73.18
2018-11-01T09:45:07.916Z,72.59
2018-11-01T09:49:14.610Z,71.91
2018-11-01T09:53:21.291Z,72.18
2018-11-01T09:57:27.990Z,71.38
2018-11-01T10:01:34.691Z,71.75
2018-11-01T10:05:41.428Z,71.44
2018-11-01T10:09:48.130Z,71.43
2018-11-01T10:13:54.794Z,70.70
2018-11-01T10:18:01.981Z,71.59
2018-11-01T10:22:08.435Z,71.58
2018-11-01T10:26:15.060Z,71.23
2018-11-01T10:30:23.787Z,71.08
2018-11-01T10:34:30.601Z,70.58
2018-11-01T10:38:37.176Z,70.79
2018-11-01T10:42:43.883Z,72.34
2018-11-01T10:46:50.561Z,73.85
2018-11-01T10:50:57.877Z,74.17
2018-11-01T10:55:04.557Z,73.95
2018-11-01T10:59:11.270Z,73.20
2018-11-01T11:03:17.985Z,72.44
2018-11-01T11:07:25.120Z,73.46
2018-11-01T11:11:31.826Z,72.52
2018-11-01T11:15:38.511Z,72.58
2018-11-01T11:19:45.304Z,71.42
2018-11-01T11:23:52.043Z,71.76
2018-11-01T11:27:58.716Z,71.70
2018-11-01T11:32:05.421Z,71.20
2018-11-01T11:36:12.096Z,71.15
2018-11-01T11:40:19.126Z,70.99
2018-11-01T11:44:25.941Z,70.64
2018-11-01T11:48:32.637Z,71.52
2018-11-01T11:52:39.252Z,71.60
2018-11-01T11:56:46.131Z,71.40
2018-11-01T12:00:52.799Z,72.15
2018-11-01T12:04:59.633Z,71.63
2018-11-01T12:09:08.261Z,70.90
2018-11-01T12:13:14.883Z,71.76
2018-11-01T12:17:21.672Z,71.78
2018-11-01T12:21:28.375Z,71.37
2018-11-01T12:25:35.210Z,70.97
2018-11-01T12:29:44.113Z,70.45
2018-11-01T12:33:50.783Z,70.75
2018-11-01T12:37:57.536Z,71.57
2018-11-01T12:42:04.390Z,72.07
2018-11-01T12:46:10.970Z,72.11
2018-11-01T12:50:17.719Z,72.25
2018-11-01T12:54:24.702Z,72.58
2018-11-01T12:58:31.385Z,72.16
2018-11-01T13:02:38.264Z,71.93
2018-11-01T13:06:44.926Z,71.64
2018-11-01T13:10:51.780Z,71.48
2018-11-01T13:14:58.888Z,71.33
2018-11-01T13:19:06.189Z,71.71
2018-11-01T13:23:12.841Z,71.60
2018-11-01T13:27:22.254Z,71.90
2018-11-01T13:31:28.928Z,72.00
2018-11-01T13:35:35.656Z,71.54
2018-11-01T13:39:42.370Z,70.92
2018-11-01T13:43:49.038Z,71.05
2018-11-01T13:47:55.839Z,70.90
2018-11-01T13:52:02.469Z,70.37
2018-11-01T13:56:09.161Z,70.18
2018-11-01T14:00:16.658Z,70.22
2018-11-01T14:04:23.331Z,69.94
2018-11-01T14:08:30.867Z,69.92
2018-11-01T14:12:37.727Z,70.07
2018-11-01T14:16:44.439Z,69.77
2018-11-01T14:20:51.511Z,69.03
2018-11-01T14:24:58.486Z,69.03
2018-11-01T14:33:11.917Z,68.89
2018-11-01T14:37:39.659Z,69.32
2018-11-01T14:41:46.513Z,69.25
2018-11-01T14:45:53.197Z,69.15
2018-11-01T14:50:00.196Z,69.56
2018-11-01T14:54:07.832Z,69.50
2018-11-01T14:58:14.881Z,69.34
2018-11-01T15:02:20.322Z,69.50
2018-11-01T15:06:27.387Z,69.69
2018-11-01T15:10:34.115Z,69.79
2018-11-01T15:14:41.992Z,69.55
2018-11-01T15:18:48.725Z,69.51
2018-11-01T15:22:55.501Z,70.19
2018-11-01T15:27:02.648Z,70.45
2018-11-01T15:31:12.187Z,70.64
2018-11-01T15:35:18.935Z,70.41
2018-11-01T15:39:26.084Z,70.57
2018-11-01T15:43:38.673Z,70.94
2018-11-01T15:47:45.432Z,71.36
2018-11-01T15:51:52.321Z,71.60
2018-11-01T15:55:59.385Z,71.77
2018-11-01T16:00:07.606Z,71.92
2018-11-01T16:04:14.399Z,72.41
2018-11-01T16:08:21.270Z,73.28
2018-11-01T16:12:28.010Z,73.67
2018-11-01T16:16:35.042Z,74.30
2018-11-01T16:20:41.733Z,73.92
2018-11-01T16:24:48.483Z,74.58
2018-11-01T16:28:55.298Z,74.83
2018-11-01T16:33:02.126Z,75.13
2018-11-01T16:37:08.889Z,75.76
2018-11-01T16:41:15.801Z,75.74
2018-11-01T16:45:22.582Z,75.53
2018-11-01T16:49:29.367Z,75.97
2018-11-01T16:53:36.169Z,76.19
2018-11-01T16:57:42.987Z,76.49
2018-11-01T17:01:49.777Z,76.65
2018-11-01T17:05:56.512Z,76.59
2018-11-01T17:10:04.015Z,77.35
2018-11-01T17:14:11.412Z,78.07
2018-11-01T17:18:18.347Z,77.91
2018-11-01T17:22:25.037Z,77.84
2018-11-01T17:26:31.988Z,77.92
2018-11-01T17:30:38.793Z,78.54
2018-11-01T17:34:45.514Z,78.39
2018-11-01T17:38:52.444Z,78.03
2018-11-01T17:42:59.285Z,78.45
2018-11-01T17:47:05.976Z,78.62
2018-11-01T17:51:12.837Z,79.07
2018-11-01T17:55:19.634Z,78.91
2018-11-01T17:59:26.276Z,79.29
2018-11-01T18:03:33.010Z,79.84
2018-11-01T18:07:40.544Z,80.10
2018-11-01T18:11:47.305Z,80.29
2018-11-01T18:15:54.152Z,80.02
2018-11-01T18:20:00.882Z,80.57
2018-11-01T18:24:07.674Z,80.17
2018-11-01T18:28:14.469Z,80.61
2018-11-01T18:32:21.227Z,80.94
2018-11-01T18:36:28.039Z,80.96
2018-11-01T18:40:34.799Z,82.52
2018-11-01T18:44:41.672Z,81.95
2018-11-01T18:48:50.907Z,81.81
2018-11-01T18:52:58.161Z,80.86
2018-11-01T18:57:04.999Z,81.51
2018-11-01T19:01:11.884Z,80.90
2018-11-01T19:09:42.417Z,81.54
2018-11-01T19:13:44.815Z,81.80
2018-11-01T19:17:52.073Z,81.56
2018-11-01T19:21:59.043Z,81.82
2018-11-01T19:26:06.406Z,82.14
2018-11-01T19:30:20.973Z,82.60
2018-11-01T19:34:40.254Z,82.21
2018-11-01T19:38:57.441Z,82.51
2018-11-01T19:43:45.038Z,82.57
2018-11-01T19:48:42.393Z,82.58
2018-11-01T19:52:49.354Z,82.63
2018-11-01T19:56:56.182Z,83.40
2018-11-01T20:01:02.945Z,84.12
2018-11-01T20:05:11.022Z,84.58
2018-11-01T20:09:18.491Z,84.63
2018-11-01T20:13:29.550Z,85.16
2018-11-01T20:17:36.244Z,85.65
2018-11-01T20:21:44.234Z,85.42
2018-11-01T20:25:56.689Z,85.30
2018-11-01T20:30:14.266Z,85.08
2018-11-01T20:34:24.643Z,85.29
2018-11-01T20:38:35.298Z,85.82
2018-11-01T20:42:43.511Z,85.35
2018-11-01T20:46:50.409Z,84.84
2018-11-01T20:50:57.279Z,85.05
2018-11-01T20:55:04.102Z,86.02
2018-11-01T20:59:13.348Z,86.03
2018-11-01T21:03:20.496Z,85.96
2018-11-01T21:07:27.329Z,85.80
2018-11-01T21:11:34.294Z,86.11
2018-11-01T21:15:42.159Z,85.36
2018-11-01T21:19:49.080Z,85.05
2018-11-01T21:23:55.885Z,85.50
2018-11-01T21:28:02.533Z,85.64
2018-11-01T21:32:10.015Z,85.09
2018-11-01T21:36:16.797Z,85.23
2018-11-01T21:40:23.539Z,84.95
2018-11-01T21:44:30.322Z,85.24
2018-11-01T21:48:37.079Z,84.94
2018-11-01T21:52:43.915Z,85.35
2018-11-01T21:56:50.563Z,85.10
2018-11-01T22:00:57.270Z,84.85
2018-11-01T22:05:04.030Z,84.68
2018-11-01T22:09:10.763Z,84.51
2018-11-01T22:13:17.462Z,84.57
2018-11-01T22:17:24.231Z,84.24
2018-11-01T22:21:31.244Z,84.67
2018-11-01T22:25:37.947Z,84.41
2018-11-01T22:29:44.749Z,83.91
2018-11-01T22:33:51.496Z,84.30
2018-11-01T22:37:58.208Z,83.74
2018-11-01T22:42:07.471Z,84.40
2018-11-01T22:46:14.227Z,84.13
2018-11-01T22:50:20.953Z,84.44
2018-11-01T22:54:27.679Z,84.09
2018-11-01T22:58:34.402Z,84.18
2018-11-01T23:02:41.278Z,84.56
2018-11-01T23:06:48.129Z,84.80
2018-11-01T23:10:54.741Z,84.92
2018-11-01T23:15:01.515Z,85.16
2018-11-01T23:19:08.329Z,86.30
2018-11-01T23:23:15.113Z,86.37
2018-11-01T23:27:21.829Z,86.15
2018-11-01T23:31:28.540Z,86.55
2018-11-01T23:35:35.315Z,87.20
2018-11-01T23:39:59.264Z,87.17
2018-11-01T23:44:23.479Z,87.12
2018-11-01T23:48:28.964Z,87.31
2018-11-01T23:52:35.672Z,87.40
2018-11-01T23:56:42.485Z,87.12
